createdAt,value
2023-01-29T00:01:23.421Z,14.95
2023-01-29T00:03:53.386Z,8.13
2023-01-29T00:06:20.661Z,7.50
2023-01-29T00:08:47.527Z,6.70
2023-01-29T00:11:14.403Z,6.65
2023-01-29T00:13:41.150Z,3.95
2023-01-29T00:16:08.177Z,6.93
2023-01-29T00:18:38.816Z,4.47
2023-01-29T00:21:17.247Z,6.30
2023-01-29T00:23:44.144Z,6.57
2023-01-29T00:26:11.226Z,4.47
2023-01-29T00:28:42.002Z,2.15
2023-01-29T00:31:14.125Z,15.05
2023-01-29T00:33:41.368Z,5.13
2023-01-29T00:36:10.316Z,27.63
2023-01-29T00:38:37.981Z,12.15
2023-01-29T00:41:31.313Z,10.18
2023-01-29T00:44:17.155Z,10.82
2023-01-29T00:46:44.176Z,3.22
2023-01-29T00:49:11.312Z,2.90
2023-01-29T00:51:39.631Z,6.43
2023-01-29T00:54:09.630Z,2.30
2023-01-29T00:56:37.311Z,2.27
2023-01-29T00:59:04.787Z,3.70
2023-01-29T01:01:50.293Z,1.92
2023-01-29T01:04:17.165Z,0.70
2023-01-29T01:06:43.981Z,0.65
2023-01-29T01:09:29.704Z,0.60
2023-01-29T01:11:56.537Z,1.35
2023-01-29T01:14:23.386Z,0.93
2023-01-29T01:16:50.329Z,1.27
2023-01-29T01:19:17.989Z,1.75
2023-01-29T01:21:48.219Z,0.50
2023-01-29T01:24:15.481Z,2.42
2023-01-29T01:26:42.371Z,0.60
2023-01-29T01:29:09.285Z,0.80
2023-01-29T01:31:36.242Z,1.55
2023-01-29T01:34:03.277Z,1.10
2023-01-29T01:36:32.425Z,2.30
2023-01-29T01:38:59.349Z,1.15
2023-01-29T01:41:26.578Z,1.75
2023-01-29T01:43:55.629Z,1.55
2023-01-29T01:46:22.770Z,1.48
2023-01-29T01:48:58.325Z,0.70
2023-01-29T01:51:26.683Z,0.75
2023-01-29T01:54:02.142Z,1.35
2023-01-29T01:56:38.469Z,0.95
2023-01-29T01:59:08.093Z,2.63
2023-01-29T02:01:34.958Z,3.58
2023-01-29T02:04:29.955Z,2.00
2023-01-29T02:07:17.403Z,1.02
2023-01-29T02:09:48.500Z,0.70
2023-01-29T02:12:16.734Z,3.17
2023-01-29T02:14:44.361Z,0.52
2023-01-29T02:17:14.584Z,0.65
2023-01-29T02:19:52.723Z,0.50
2023-01-29T02:22:56.553Z,0.60
2023-01-29T02:26:00.056Z,0.73
2023-01-29T02:28:40.760Z,1.98
2023-01-29T02:31:33.745Z,0.43
2023-01-29T02:34:10.933Z,0.30
2023-01-29T02:36:47.357Z,0.50
2023-01-29T02:39:57.726Z,0.30
2023-01-29T02:43:24.429Z,1.93
2023-01-29T02:46:16.104Z,1.92
2023-01-29T02:48:54.768Z,1.13
2023-01-29T02:51:32.184Z,1.88
2023-01-29T02:54:16.816Z,4.30
2023-01-29T02:57:00.866Z,2.88
2023-01-29T03:00:07.126Z,2.28
2023-01-29T03:03:12.037Z,1.23
2023-01-29T03:05:45.089Z,2.55
2023-01-29T03:08:16.150Z,1.02
2023-01-29T03:10:54.409Z,2.03
2023-01-29T03:13:29.764Z,17.42
2023-01-29T03:16:03.135Z,22.52
2023-01-29T03:18:44.961Z,12.80
2023-01-29T03:21:41.639Z,6.97
2023-01-29T03:24:31.934Z,3.35
2023-01-29T03:27:21.249Z,1.90
2023-01-29T03:30:09.053Z,2.30
2023-01-29T03:32:48.973Z,1.13
2023-01-29T03:35:33.631Z,0.40
2023-01-29T03:38:01.086Z,0.85
2023-01-29T03:40:30.226Z,0.30
2023-01-29T03:43:53.220Z,0.30
2023-01-29T03:46:36.792Z,0.30
2023-01-29T03:49:19.433Z,0.35
2023-01-29T03:51:59.360Z,0.20
2023-01-29T03:54:32.945Z,0.22
2023-01-29T03:57:02.592Z,1.00
2023-01-29T03:59:43.737Z,0.20
2023-01-29T04:02:31.963Z,0.20
2023-01-29T04:05:09.488Z,0.25
2023-01-29T04:07:47.435Z,0.20
2023-01-29T04:10:18.631Z,0.20
2023-01-29T04:12:55.391Z,0.10
2023-01-29T04:15:23.402Z,0.35
2023-01-29T04:17:52.826Z,1.17
2023-01-29T04:20:43.248Z,0.20
2023-01-29T04:23:20.824Z,0.20
2023-01-29T04:25:54.563Z,0.20
2023-01-29T04:28:28.681Z,0.57
2023-01-29T04:31:01.367Z,0.47
2023-01-29T04:33:31.763Z,0.20
2023-01-29T04:36:10.953Z,1.65
2023-01-29T04:39:17.441Z,0.85
2023-01-29T04:41:54.708Z,0.30
2023-01-29T04:44:28.819Z,0.20
2023-01-29T04:47:15.702Z,0.40
2023-01-29T04:50:13.142Z,0.63
2023-01-29T04:52:49.232Z,0.20
2023-01-29T04:55:28.141Z,0.30
2023-01-29T04:58:17.012Z,0.25
2023-01-29T05:00:45.611Z,1.00
2023-01-29T05:03:14.209Z,0.52
2023-01-29T05:05:46.737Z,0.38
2023-01-29T05:08:16.146Z,0.50
2023-01-29T05:10:43.215Z,0.10
2023-01-29T05:13:12.489Z,0.20
2023-01-29T05:15:47.236Z,0.25
2023-01-29T05:18:14.084Z,0.32
2023-01-29T05:20:42.713Z,0.20
2023-01-29T05:23:11.807Z,0.30
2023-01-29T05:25:38.822Z,0.47
2023-01-29T05:28:16.346Z,0.52
2023-01-29T05:30:44.809Z,0.22
2023-01-29T05:33:18.331Z,0.20
2023-01-29T05:35:45.552Z,0.20
2023-01-29T05:38:12.542Z,0.20
2023-01-29T05:40:39.514Z,0.10
2023-01-29T05:43:07.625Z,0.22
2023-01-29T05:45:34.490Z,0.10
2023-01-29T05:48:01.228Z,0.10
2023-01-29T05:50:28.793Z,0.30
2023-01-29T05:52:59.656Z,0.20
2023-01-29T05:55:27.708Z,0.32
2023-01-29T05:57:54.412Z,0.17
2023-01-29T06:00:21.526Z,0.10
2023-01-29T06:02:48.450Z,0.30
2023-01-29T06:05:15.449Z,0.13
2023-01-29T06:07:45.338Z,0.10
2023-01-29T06:10:14.248Z,0.77
2023-01-29T06:12:42.348Z,1.25
2023-01-29T06:15:10.039Z,0.10
2023-01-29T06:17:37.028Z,0.17
2023-01-29T06:20:04.849Z,0.10
2023-01-29T06:22:32.988Z,0.20
2023-01-29T06:24:59.868Z,0.10
2023-01-29T06:27:26.780Z,0.30
2023-01-29T06:29:53.541Z,0.10
2023-01-29T06:32:20.299Z,0.10
2023-01-29T06:34:49.451Z,0.20
2023-01-29T06:37:16.563Z,0.20
2023-01-29T06:39:43.403Z,0.63
2023-01-29T06:42:11.203Z,0.25
2023-01-29T06:44:38.030Z,0.52
2023-01-29T06:47:05.351Z,0.10
2023-01-29T06:49:32.291Z,0.10
2023-01-29T06:51:59.397Z,0.20
2023-01-29T06:54:26.686Z,0.38
2023-01-29T06:56:54.404Z,0.10
2023-01-29T06:59:21.170Z,0.20
2023-01-29T07:01:48.072Z,0.20
2023-01-29T07:04:15.032Z,0.20
2023-01-29T07:06:41.805Z,0.10
2023-01-29T07:09:08.621Z,0.20
2023-01-29T07:11:35.692Z,0.10
2023-01-29T07:14:02.527Z,0.80
2023-01-29T07:16:29.409Z,0.20
2023-01-29T07:18:56.236Z,0.10
2023-01-29T07:21:23.108Z,0.10
2023-01-29T07:23:49.930Z,0.20
2023-01-29T07:26:17.041Z,0.20
2023-01-29T07:28:43.797Z,0.20
2023-01-29T07:31:12.817Z,0.10
2023-01-29T07:33:39.662Z,0.30
2023-01-29T07:36:10.068Z,0.63
2023-01-29T07:38:37.354Z,0.50
2023-01-29T07:41:04.180Z,0.40
2023-01-29T07:43:31.090Z,0.30
2023-01-29T07:46:01.967Z,0.32
2023-01-29T07:50:58.994Z,0.70
2023-01-29T07:53:25.898Z,0.40
2023-01-29T07:55:52.826Z,0.20
2023-01-29T07:58:19.796Z,1.42
2023-01-29T08:00:46.618Z,0.38
2023-01-29T08:03:18.246Z,0.50
2023-01-29T08:05:45.319Z,0.88
2023-01-29T08:08:12.260Z,0.75
2023-01-29T08:10:39.969Z,0.50
2023-01-29T08:13:07.842Z,0.40
2023-01-29T08:15:36.636Z,0.50
2023-01-29T08:18:05.019Z,0.50
2023-01-29T08:20:31.965Z,0.30
2023-01-29T08:23:12.475Z,0.73
2023-01-29T08:25:39.264Z,0.40
2023-01-29T08:28:06.133Z,0.73
2023-01-29T08:30:34.347Z,0.55
2023-01-29T08:33:01.788Z,0.32
2023-01-29T08:35:28.638Z,0.88
2023-01-29T08:37:58.362Z,0.43
2023-01-29T08:40:25.654Z,1.27
2023-01-29T08:42:52.392Z,1.23
2023-01-29T08:45:19.158Z,0.82
2023-01-29T08:47:49.948Z,0.40
2023-01-29T08:50:18.148Z,1.45
2023-01-29T08:52:45.881Z,1.48
2023-01-29T08:55:13.103Z,0.60
2023-01-29T08:57:39.920Z,0.50
2023-01-29T09:00:09.747Z,0.65
2023-01-29T09:02:37.227Z,2.25
2023-01-29T09:05:04.195Z,2.20
2023-01-29T09:07:30.975Z,1.35
2023-01-29T09:09:57.733Z,2.72
2023-01-29T09:12:24.691Z,1.42
2023-01-29T09:14:51.619Z,0.43
2023-01-29T09:17:18.497Z,1.63
2023-01-29T09:19:45.324Z,2.58
2023-01-29T09:22:12.259Z,2.10
2023-01-29T09:24:39.013Z,1.27
2023-01-29T09:27:06.292Z,0.73
2023-01-29T09:29:35.678Z,0.60
2023-01-29T09:32:04.511Z,0.32
2023-01-29T09:34:31.306Z,0.38
2023-01-29T09:36:58.190Z,0.38
2023-01-29T09:39:25.092Z,0.47
2023-01-29T09:42:15.589Z,2.25
2023-01-29T09:44:51.289Z,0.73
2023-01-29T09:47:18.636Z,0.50
2023-01-29T09:49:59.854Z,1.65
2023-01-29T09:52:30.775Z,0.50
2023-01-29T09:55:03.574Z,1.30
2023-01-29T09:58:27.547Z,0.80
2023-01-29T10:01:34.133Z,1.50
2023-01-29T10:04:08.132Z,1.42
2023-01-29T10:06:40.952Z,1.23
2023-01-29T10:09:51.811Z,1.33
2023-01-29T10:12:46.093Z,0.82
2023-01-29T10:15:40.955Z,1.13
2023-01-29T10:18:55.681Z,0.32
2023-01-29T10:21:25.228Z,2.97
2023-01-29T10:24:24.278Z,2.47
2023-01-29T10:26:52.514Z,0.60
2023-01-29T10:29:22.086Z,0.50
2023-01-29T10:31:56.565Z,1.95
2023-01-29T10:34:32.117Z,0.85
2023-01-29T10:36:59.963Z,0.50
2023-01-29T10:39:27.138Z,1.30
2023-01-29T10:42:29.425Z,0.25
2023-01-29T10:45:24.636Z,0.60
2023-01-29T10:48:22.420Z,0.40
2023-01-29T10:50:51.266Z,0.40
2023-01-29T10:53:39.764Z,1.85
2023-01-29T10:56:22.313Z,1.08
2023-01-29T10:59:00.158Z,0.28
2023-01-29T11:01:27.152Z,0.13
2023-01-29T11:04:02.349Z,0.40
2023-01-29T11:06:35.295Z,0.10
2023-01-29T11:09:29.547Z,0.88
2023-01-29T11:12:21.634Z,0.43
2023-01-29T11:14:53.192Z,0.10
2023-01-29T11:17:22.905Z,0.20
2023-01-29T11:19:51.792Z,0.10
2023-01-29T11:22:21.188Z,0.80
2023-01-29T11:25:07.474Z,0.30
2023-01-29T11:27:35.695Z,0.30
2023-01-29T11:30:02.615Z,0.20
2023-01-29T11:32:32.891Z,0.28
2023-01-29T11:35:19.968Z,0.30
2023-01-29T11:37:47.096Z,0.15
2023-01-29T11:40:20.094Z,0.28
2023-01-29T11:42:47.610Z,0.28
2023-01-29T11:45:20.233Z,0.63
2023-01-29T11:47:53.065Z,0.40
2023-01-29T11:50:24.952Z,0.20
2023-01-29T11:52:52.131Z,1.58
2023-01-29T11:55:49.870Z,0.32
2023-01-29T11:58:21.607Z,0.13
2023-01-29T12:00:50.737Z,0.20
2023-01-29T12:03:25.043Z,0.20
2023-01-29T12:06:03.982Z,1.52
2023-01-29T12:08:37.920Z,0.68
2023-01-29T12:11:35.628Z,0.88
2023-01-29T12:14:05.600Z,0.10
2023-01-29T12:17:04.865Z,0.43
2023-01-29T12:19:50.376Z,1.27
2023-01-29T12:22:54.687Z,0.47
2023-01-29T12:25:28.862Z,0.68
2023-01-29T12:28:24.243Z,0.30
2023-01-29T12:31:17.627Z,0.35
2023-01-29T12:34:02.683Z,1.60
2023-01-29T12:36:52.923Z,0.82
2023-01-29T12:39:20.527Z,1.20
2023-01-29T12:41:56.137Z,0.30
2023-01-29T12:44:31.059Z,0.30
2023-01-29T12:47:00.789Z,0.57
2023-01-29T12:49:33.337Z,0.30
2023-01-29T12:52:07.689Z,1.35
2023-01-29T12:54:41.203Z,0.20
2023-01-29T12:57:23.499Z,0.45
2023-01-29T12:59:58.740Z,0.40
2023-01-29T13:02:50.529Z,0.40
2023-01-29T13:05:30.356Z,1.17
2023-01-29T13:08:02.981Z,0.35
2023-01-29T13:10:34.297Z,1.50
2023-01-29T13:13:10.327Z,1.42
2023-01-29T13:15:39.243Z,1.85
2023-01-29T13:18:38.395Z,0.75
2023-01-29T13:21:05.967Z,1.00
2023-01-29T13:23:39.873Z,1.05
2023-01-29T13:26:06.850Z,1.95
2023-01-29T13:28:33.653Z,2.33
2023-01-29T13:31:31.544Z,2.00
2023-01-29T13:34:06.924Z,1.52
2023-01-29T13:36:34.933Z,2.95
2023-01-29T13:39:05.269Z,0.95
2023-01-29T13:41:38.546Z,3.13
2023-01-29T13:44:07.421Z,1.42
2023-01-29T13:46:40.495Z,1.27
2023-01-29T13:49:42.782Z,1.45
2023-01-29T13:52:34.979Z,3.03
2023-01-29T13:55:09.114Z,2.15
2023-01-29T13:57:45.084Z,3.10
2023-01-29T14:00:20.979Z,0.50
2023-01-29T14:02:49.020Z,1.58
2023-01-29T14:05:31.183Z,1.85
2023-01-29T14:08:09.689Z,1.80
2023-01-29T14:10:37.864Z,1.60
2023-01-29T14:13:04.568Z,2.75
2023-01-29T14:15:36.078Z,2.53
2023-01-29T14:18:15.058Z,2.55
2023-01-29T14:20:47.960Z,1.25
2023-01-29T14:23:26.345Z,1.40
2023-01-29T14:25:53.179Z,1.05
2023-01-29T14:28:24.978Z,1.40
2023-01-29T14:30:52.581Z,1.25
2023-01-29T14:33:41.773Z,3.75
2023-01-29T14:36:13.131Z,2.20
2023-01-29T14:38:41.953Z,0.77
2023-01-29T14:41:26.679Z,1.40
2023-01-29T14:44:31.992Z,1.63
2023-01-29T14:46:58.840Z,2.30
2023-01-29T14:49:54.448Z,0.85
2023-01-29T14:52:25.951Z,1.13
2023-01-29T14:54:52.943Z,1.80
2023-01-29T14:57:20.371Z,0.30
2023-01-29T14:59:53.541Z,0.30
2023-01-29T15:02:27.025Z,1.08
2023-01-29T15:04:58.990Z,0.40
2023-01-29T15:07:31.034Z,0.52
2023-01-29T15:10:24.480Z,0.30
2023-01-29T15:13:15.637Z,0.20
2023-01-29T15:18:43.326Z,0.10
2023-01-29T15:21:15.646Z,0.85
2023-01-29T15:23:44.289Z,3.28
2023-01-29T15:26:16.190Z,0.32
2023-01-29T15:28:47.136Z,0.35
2023-01-29T15:31:18.473Z,0.20
2023-01-29T15:33:46.102Z,1.13
2023-01-29T15:36:20.246Z,0.25
2023-01-29T15:38:47.081Z,2.33
2023-01-29T15:41:22.008Z,0.60
2023-01-29T15:43:57.956Z,0.30
2023-01-29T15:46:30.109Z,0.45
2023-01-29T15:48:59.475Z,0.93
2023-01-29T15:51:27.606Z,1.17
2023-01-29T15:54:00.179Z,0.63
2023-01-29T15:56:31.507Z,0.30
2023-01-29T15:59:00.310Z,0.50
2023-01-29T16:01:28.974Z,0.40
2023-01-29T16:03:59.388Z,0.65
2023-01-29T16:06:26.995Z,0.20
2023-01-29T16:08:54.637Z,0.75
2023-01-29T16:11:21.620Z,0.45
2023-01-29T16:13:50.319Z,0.38
2023-01-29T16:16:27.689Z,2.45
2023-01-29T16:19:01.142Z,0.55
2023-01-29T16:21:39.328Z,1.85
2023-01-29T16:24:09.847Z,0.22
2023-01-29T16:26:38.753Z,0.40
2023-01-29T16:29:07.212Z,0.30
2023-01-29T16:31:35.955Z,0.50
2023-01-29T16:34:41.864Z,3.33
2023-01-29T16:37:20.267Z,4.90
2023-01-29T16:39:48.829Z,4.43
2023-01-29T16:42:20.381Z,2.30
2023-01-29T16:45:02.148Z,3.38
2023-01-29T16:47:41.435Z,1.17
2023-01-29T16:50:40.642Z,6.63
2023-01-29T16:53:20.925Z,4.00
2023-01-29T16:55:49.778Z,7.05
2023-01-29T16:58:21.381Z,7.25
2023-01-29T17:00:53.922Z,11.93
2023-01-29T17:03:21.353Z,8.75
2023-01-29T17:05:48.355Z,8.55
2023-01-29T17:08:19.838Z,10.05
2023-01-29T17:10:49.754Z,12.50
2023-01-29T17:13:27.520Z,9.70
2023-01-29T17:16:00.236Z,13.07
2023-01-29T17:18:27.049Z,5.20
2023-01-29T17:20:53.925Z,12.65
2023-01-29T17:23:21.089Z,11.88
2023-01-29T17:25:48.211Z,10.18
2023-01-29T17:28:17.327Z,11.90
2023-01-29T17:30:50.581Z,8.68
2023-01-29T17:33:23.504Z,11.43
2023-01-29T17:35:50.610Z,8.02
2023-01-29T17:38:25.914Z,10.18
2023-01-29T17:41:00.352Z,6.90
2023-01-29T17:43:27.526Z,9.00
2023-01-29T17:45:54.505Z,3.92
2023-01-29T17:48:26.670Z,12.35
2023-01-29T17:50:59.099Z,9.63
2023-01-29T17:53:30.560Z,17.38
2023-01-29T17:56:03.270Z,8.77
2023-01-29T17:58:30.044Z,11.82
2023-01-29T18:00:56.794Z,16.55
2023-01-29T18:03:23.673Z,17.25
2023-01-29T18:05:50.673Z,12.15
2023-01-29T18:08:35.426Z,14.25
2023-01-29T18:11:02.327Z,8.40
2023-01-29T18:13:29.058Z,17.00
2023-01-29T18:15:55.881Z,8.85
2023-01-29T18:18:23.987Z,19.23
2023-01-29T18:20:51.076Z,9.50
2023-01-29T18:23:18.652Z,10.30
2023-01-29T18:25:45.682Z,9.05
2023-01-29T18:28:19.931Z,12.77
2023-01-29T18:30:47.708Z,6.40
2023-01-29T18:33:15.792Z,12.15
2023-01-29T18:35:48.253Z,11.38
2023-01-29T18:38:15.178Z,10.05
2023-01-29T18:40:42.054Z,10.27
2023-01-29T18:43:09.220Z,17.17
2023-01-29T18:45:36.548Z,10.93
2023-01-29T18:48:03.690Z,11.23
2023-01-29T18:50:30.684Z,15.40
2023-01-29T18:52:57.580Z,11.25
2023-01-29T18:55:24.352Z,14.45
2023-01-29T18:58:29.578Z,11.20
2023-01-29T19:00:41.931Z,10.43
2023-01-29T19:03:08.785Z,13.52
2023-01-29T19:05:35.685Z,10.52
2023-01-29T19:08:02.501Z,7.20
2023-01-29T19:10:29.289Z,11.48
2023-01-29T19:12:56.165Z,10.05
2023-01-29T19:15:23.255Z,10.95
2023-01-29T19:17:51.124Z,21.48
2023-01-29T19:20:18.196Z,19.20
2023-01-29T19:22:45.143Z,9.65
2023-01-29T19:25:12.830Z,11.85
2023-01-29T19:27:39.879Z,18.25
2023-01-29T19:30:07.675Z,10.43
2023-01-29T19:32:34.698Z,8.85
2023-01-29T19:35:01.571Z,14.60
2023-01-29T19:37:30.573Z,12.35
2023-01-29T19:39:57.534Z,15.75
2023-01-29T19:42:24.575Z,10.07
2023-01-29T19:44:52.141Z,13.27
2023-01-29T19:47:19.182Z,11.68
2023-01-29T19:49:46.055Z,7.97
2023-01-29T19:52:49.861Z,11.27
2023-01-29T19:55:19.071Z,13.70
2023-01-29T19:57:46.189Z,16.50
2023-01-29T20:00:15.583Z,9.77
2023-01-29T20:02:42.386Z,5.05
2023-01-29T20:05:12.080Z,10.95
2023-01-29T20:07:40.569Z,9.52
2023-01-29T20:10:09.750Z,7.82
2023-01-29T20:12:36.571Z,8.52
2023-01-29T20:15:03.943Z,7.90
2023-01-29T20:17:30.762Z,8.27
2023-01-29T20:19:57.563Z,5.35
2023-01-29T20:22:26.559Z,6.20
2023-01-29T20:24:53.276Z,7.18
2023-01-29T20:27:20.089Z,5.35
2023-01-29T20:29:46.861Z,9.32
2023-01-29T20:32:14.737Z,5.65
2023-01-29T20:34:41.643Z,3.17
2023-01-29T20:37:08.382Z,6.65
2023-01-29T20:39:35.435Z,2.10
2023-01-29T20:42:02.239Z,2.80
2023-01-29T20:44:29.056Z,3.42
2023-01-29T20:46:58.518Z,3.58
2023-01-29T20:49:28.382Z,3.50
2023-01-29T20:51:55.265Z,4.43
2023-01-29T20:54:22.221Z,2.05
2023-01-29T20:56:49.277Z,3.60
2023-01-29T20:59:16.860Z,5.97
2023-01-29T21:01:44.220Z,7.05
2023-01-29T21:04:11.017Z,3.85
2023-01-29T21:06:37.833Z,4.72
2023-01-29T21:09:04.759Z,3.13
2023-01-29T21:11:33.464Z,3.53
2023-01-29T21:14:01.893Z,5.03
2023-01-29T21:16:29.089Z,3.17
2023-01-29T21:18:57.241Z,2.38
2023-01-29T21:21:24.343Z,3.80
2023-01-29T21:23:51.259Z,4.90
2023-01-29T21:26:18.921Z,3.83
2023-01-29T21:28:46.206Z,3.13
2023-01-29T21:31:14.606Z,5.68
2023-01-29T21:33:41.397Z,5.55
2023-01-29T21:36:10.175Z,3.08
2023-01-29T21:38:37.033Z,4.75
2023-01-29T21:41:05.957Z,5.82
2023-01-29T21:43:33.216Z,3.80
2023-01-29T21:46:03.921Z,4.18
2023-01-29T21:48:30.786Z,3.67
2023-01-29T21:50:57.609Z,2.15
2023-01-29T21:53:24.707Z,2.75
2023-01-29T21:55:51.913Z,1.77
2023-01-29T21:58:20.863Z,2.55
2023-01-29T22:00:48.933Z,4.78
2023-01-29T22:03:15.999Z,3.22
2023-01-29T22:05:42.911Z,3.53
2023-01-29T22:09:35.629Z,2.80
2023-01-29T22:12:02.434Z,2.50
2023-01-29T22:14:29.277Z,8.75
2023-01-29T22:16:56.928Z,5.53
2023-01-29T22:19:25.350Z,5.88
2023-01-29T22:21:53.156Z,7.70
2023-01-29T22:24:21.097Z,7.65
2023-01-29T22:26:49.618Z,7.10
2023-01-29T22:29:19.712Z,7.30
2023-01-29T22:31:46.789Z,4.17
2023-01-29T22:34:14.488Z,3.20
2023-01-29T22:36:41.283Z,3.10
2023-01-29T22:39:08.784Z,3.22
2023-01-29T22:41:36.490Z,2.78
2023-01-29T22:44:03.497Z,4.80
2023-01-29T22:46:30.498Z,3.35
2023-01-29T22:48:57.276Z,3.03
2023-01-29T22:51:24.069Z,3.22
2023-01-29T22:53:53.154Z,4.15
2023-01-29T22:56:25.224Z,4.80
2023-01-29T22:58:52.938Z,2.97
2023-01-29T23:01:38.469Z,3.13
2023-01-29T23:04:05.394Z,2.80
2023-01-29T23:06:32.134Z,11.82
2023-01-29T23:08:59.322Z,4.25
2023-01-29T23:11:26.269Z,10.95
2023-01-29T23:13:55.073Z,3.10
2023-01-29T23:16:26.782Z,5.20
2023-01-29T23:18:55.599Z,4.40
2023-01-29T23:21:25.054Z,14.07
2023-01-29T23:24:01.487Z,7.65
2023-01-29T23:26:47.385Z,7.28
2023-01-29T23:29:14.825Z,6.57
2023-01-29T23:31:41.653Z,6.55
2023-01-29T23:34:08.574Z,10.48
2023-01-29T23:36:35.316Z,8.90
2023-01-29T23:39:02.086Z,6.65
2023-01-29T23:41:28.949Z,5.93
2023-01-29T23:43:55.806Z,6.25
2023-01-29T23:46:23.033Z,7.88
2023-01-29T23:48:49.836Z,8.98
2023-01-29T23:51:16.689Z,7.45
2023-01-29T23:53:43.555Z,8.73
2023-01-29T23:56:10.679Z,10.10
2023-01-29T23:58:37.553Z,8.52
